createdAt,value
2019-03-26T00:00:09.245Z,4.25
2019-03-26T00:02:40.199Z,3.80
2019-03-26T00:05:09.851Z,4.03
2019-03-26T00:07:39.154Z,3.70
2019-03-26T00:10:08.554Z,2.90
2019-03-26T00:12:37.877Z,3.67
2019-03-26T00:15:07.349Z,2.83
2019-03-26T00:17:37.269Z,3.37
2019-03-26T00:20:06.725Z,2.65
2019-03-26T00:22:36.046Z,3.42
2019-03-26T00:25:06.980Z,3.42
2019-03-26T00:27:36.368Z,3.00
2019-03-26T00:30:06.130Z,3.37
2019-03-26T00:32:35.462Z,2.92
2019-03-26T00:35:05.225Z,3.47
2019-03-26T00:37:34.550Z,2.87
2019-03-26T00:40:04.449Z,3.10
2019-03-26T00:42:33.775Z,2.92
2019-03-26T00:45:03.107Z,2.65
2019-03-26T00:47:32.507Z,2.17
2019-03-26T00:50:01.830Z,2.87
2019-03-26T00:52:31.227Z,2.47
2019-03-26T00:55:00.557Z,2.58
2019-03-26T00:57:29.876Z,2.60
2019-03-26T00:59:59.208Z,2.65
2019-03-26T01:02:28.852Z,1.90
2019-03-26T01:04:58.182Z,2.60
2019-03-26T01:07:27.513Z,2.50
2019-03-26T01:09:56.840Z,2.92
2019-03-26T01:12:26.159Z,2.50
2019-03-26T01:14:56.460Z,2.42
2019-03-26T01:17:25.781Z,2.85
2019-03-26T01:19:55.113Z,2.60
2019-03-26T01:22:24.436Z,3.27
2019-03-26T01:24:53.769Z,2.52
2019-03-26T01:27:23.100Z,2.67
2019-03-26T01:29:52.714Z,2.90
2019-03-26T01:32:22.400Z,2.30
2019-03-26T01:34:51.724Z,2.80
2019-03-26T01:37:21.320Z,2.92
2019-03-26T01:39:50.940Z,2.65
2019-03-26T01:42:20.265Z,2.98
2019-03-26T01:44:49.588Z,2.80
2019-03-26T01:47:18.917Z,2.58
2019-03-26T01:49:49.211Z,2.77
2019-03-26T01:52:18.540Z,2.75
2019-03-26T01:54:47.861Z,3.02
2019-03-26T01:57:17.477Z,2.00
2019-03-26T01:59:46.801Z,2.75
2019-03-26T02:02:16.138Z,2.65
2019-03-26T02:04:58.962Z,2.00
2019-03-26T02:07:16.493Z,2.00
2019-03-26T02:09:46.888Z,2.20
2019-03-26T02:12:16.561Z,2.90
2019-03-26T02:14:45.885Z,2.17
2019-03-26T02:17:15.204Z,2.08
2019-03-26T02:19:44.531Z,2.42
2019-03-26T02:22:13.869Z,2.15
2019-03-26T02:24:43.190Z,1.85
2019-03-26T02:27:12.513Z,2.72
2019-03-26T02:29:41.903Z,2.05
2019-03-26T02:32:11.176Z,2.72
2019-03-26T02:34:40.790Z,2.22
2019-03-26T02:37:10.121Z,2.52
2019-03-26T02:39:39.448Z,2.65
2019-03-26T02:42:08.784Z,2.00
2019-03-26T02:44:39.169Z,2.00
2019-03-26T02:47:08.491Z,2.70
2019-03-26T02:49:37.815Z,2.85
2019-03-26T02:52:07.165Z,2.30
2019-03-26T02:54:37.490Z,2.85
2019-03-26T02:57:06.812Z,2.30
2019-03-26T02:59:36.133Z,2.20
2019-03-26T03:02:05.469Z,2.60
2019-03-26T03:04:34.791Z,2.75
2019-03-26T03:07:04.121Z,2.55
2019-03-26T03:09:33.485Z,2.50
2019-03-26T03:12:02.831Z,2.72
2019-03-26T03:14:33.249Z,2.83
2019-03-26T03:17:02.622Z,2.45
2019-03-26T03:19:31.939Z,2.27
2019-03-26T03:22:01.265Z,2.98
2019-03-26T03:24:30.591Z,2.40
2019-03-26T03:27:00.222Z,2.08
2019-03-26T03:29:29.549Z,2.35
2019-03-26T03:31:58.880Z,2.98
2019-03-26T03:34:28.269Z,2.75
2019-03-26T03:36:57.579Z,2.55
2019-03-26T03:39:26.894Z,2.75
2019-03-26T03:41:56.225Z,2.35
2019-03-26T03:44:25.551Z,2.80
2019-03-26T03:46:56.574Z,3.40
2019-03-26T03:49:27.679Z,2.83
2019-03-26T03:51:58.050Z,2.90
2019-03-26T03:54:27.519Z,2.62
2019-03-26T03:56:58.703Z,2.40
2019-03-26T03:59:29.066Z,3.30
2019-03-26T04:01:58.405Z,2.83
2019-03-26T04:04:27.732Z,2.45
2019-03-26T04:06:57.062Z,2.30
2019-03-26T04:09:26.389Z,3.35
2019-03-26T04:11:55.743Z,2.42
2019-03-26T04:14:25.067Z,2.95
2019-03-26T04:16:54.398Z,2.67
2019-03-26T04:19:23.732Z,3.25
2019-03-26T04:21:53.057Z,2.17
2019-03-26T04:24:22.386Z,2.75
2019-03-26T04:26:51.712Z,2.47
2019-03-26T04:29:21.040Z,3.20
2019-03-26T04:31:50.373Z,2.22
2019-03-26T04:34:22.664Z,2.65
2019-03-26T04:36:50.729Z,2.92
2019-03-26T04:39:20.060Z,2.35
2019-03-26T04:41:49.382Z,2.47
2019-03-26T04:44:18.714Z,2.62
2019-03-26T04:46:48.041Z,2.60
2019-03-26T04:49:17.370Z,2.33
2019-03-26T04:51:46.718Z,2.65
2019-03-26T04:54:16.028Z,2.35
2019-03-26T04:56:45.360Z,2.37
2019-03-26T04:59:14.691Z,2.33
2019-03-26T05:01:44.018Z,2.45
2019-03-26T05:04:13.346Z,3.02
2019-03-26T05:06:42.671Z,2.80
2019-03-26T05:09:11.996Z,2.62
2019-03-26T05:11:41.325Z,2.50
2019-03-26T05:14:10.915Z,3.20
2019-03-26T05:16:40.237Z,3.15
2019-03-26T05:19:09.566Z,2.30
2019-03-26T05:21:38.891Z,2.42
2019-03-26T05:24:08.534Z,2.85
2019-03-26T05:26:38.116Z,2.37
2019-03-26T05:29:07.442Z,3.35
2019-03-26T05:31:36.768Z,2.45
2019-03-26T05:34:06.099Z,2.50
2019-03-26T05:36:35.446Z,2.80
2019-03-26T05:39:06.814Z,2.83
2019-03-26T05:41:37.098Z,3.17
2019-03-26T05:44:06.435Z,3.12
2019-03-26T05:46:35.763Z,2.75
2019-03-26T05:49:05.104Z,3.40
2019-03-26T05:51:34.424Z,2.65
2019-03-26T05:54:03.762Z,2.80
2019-03-26T05:56:33.338Z,3.08
2019-03-26T05:59:02.677Z,3.17
2019-03-26T06:01:32.005Z,2.83
2019-03-26T06:04:01.339Z,3.12
2019-03-26T06:06:30.661Z,3.12
2019-03-26T06:08:59.998Z,3.27
2019-03-26T06:11:29.326Z,2.62
2019-03-26T06:13:58.730Z,3.40
2019-03-26T06:16:37.887Z,3.12
2019-03-26T06:18:59.422Z,3.37
2019-03-26T06:21:28.751Z,3.12
2019-03-26T06:23:58.082Z,2.77
2019-03-26T06:26:27.414Z,2.65
2019-03-26T06:28:56.758Z,3.75
2019-03-26T06:31:26.077Z,3.35
2019-03-26T06:33:56.659Z,3.35
2019-03-26T06:36:25.917Z,3.55
2019-03-26T06:38:55.255Z,2.47
2019-03-26T06:41:24.584Z,2.87
2019-03-26T06:43:53.919Z,2.65
2019-03-26T06:46:23.254Z,3.35
2019-03-26T06:48:52.862Z,3.52
2019-03-26T06:51:22.214Z,3.47
2019-03-26T06:53:51.542Z,2.77
2019-03-26T06:56:20.871Z,2.87
2019-03-26T06:58:50.200Z,3.67
2019-03-26T07:01:19.602Z,3.00
2019-03-26T07:03:48.921Z,3.10
2019-03-26T07:06:18.255Z,3.10
2019-03-26T07:08:47.587Z,3.12
2019-03-26T07:11:16.933Z,3.95
2019-03-26T07:13:46.262Z,2.40
2019-03-26T07:16:15.897Z,3.02
2019-03-26T07:18:45.222Z,3.10
2019-03-26T07:21:14.632Z,2.98
2019-03-26T07:23:43.955Z,3.47
2019-03-26T07:26:13.288Z,2.85
2019-03-26T07:28:43.686Z,3.42
2019-03-26T07:31:13.020Z,3.62
2019-03-26T07:33:42.351Z,3.15
2019-03-26T07:36:11.687Z,3.77
2019-03-26T07:38:41.012Z,3.50
2019-03-26T07:41:10.342Z,3.25
2019-03-26T07:43:39.732Z,3.80
2019-03-26T07:46:09.070Z,3.20
2019-03-26T07:48:38.400Z,3.92
2019-03-26T07:51:07.755Z,3.75
2019-03-26T07:53:37.088Z,3.52
2019-03-26T07:56:06.415Z,3.70
2019-03-26T07:58:35.742Z,3.40
2019-03-26T08:01:05.068Z,3.27
2019-03-26T08:03:34.665Z,3.22
2019-03-26T08:06:04.069Z,3.92
2019-03-26T08:08:33.398Z,3.58
2019-03-26T08:11:02.727Z,3.50
2019-03-26T08:13:32.097Z,2.85
2019-03-26T08:16:01.388Z,3.22
2019-03-26T08:18:30.721Z,3.17
2019-03-26T08:21:00.044Z,3.25
2019-03-26T08:23:29.377Z,2.70
2019-03-26T08:25:58.702Z,3.77
2019-03-26T08:28:28.033Z,3.42
2019-03-26T08:30:57.377Z,3.05
2019-03-26T08:33:26.700Z,3.50
2019-03-26T08:35:56.025Z,2.35
2019-03-26T08:38:25.605Z,2.67
2019-03-26T08:40:55.177Z,3.00
2019-03-26T08:43:24.562Z,3.30
2019-03-26T08:45:53.835Z,2.77
2019-03-26T08:48:23.159Z,3.12
2019-03-26T08:50:52.629Z,3.10
2019-03-26T08:53:22.930Z,2.92
2019-03-26T08:55:52.255Z,3.30
2019-03-26T08:58:21.854Z,3.70
2019-03-26T09:00:51.179Z,3.10
2019-03-26T09:03:20.508Z,2.90
2019-03-26T09:05:49.899Z,2.83
2019-03-26T09:08:25.172Z,3.42
2019-03-26T09:10:51.934Z,3.30
2019-03-26T09:13:21.286Z,3.77
2019-03-26T09:15:50.856Z,2.90
2019-03-26T09:18:20.195Z,3.05
2019-03-26T09:20:49.523Z,3.35
2019-03-26T09:23:18.859Z,3.27
2019-03-26T09:25:48.190Z,3.10
2019-03-26T09:28:17.522Z,3.35
2019-03-26T09:30:46.848Z,3.00
2019-03-26T09:33:16.475Z,3.02
2019-03-26T09:35:45.865Z,3.58
2019-03-26T09:38:16.269Z,3.08
2019-03-26T09:40:46.665Z,2.67
2019-03-26T09:43:16.002Z,2.62
2019-03-26T09:45:45.330Z,2.80
2019-03-26T09:48:14.880Z,2.45
2019-03-26T09:50:44.220Z,2.60
2019-03-26T09:53:13.550Z,2.20
2019-03-26T09:55:43.170Z,2.85
2019-03-26T09:58:12.769Z,2.50
2019-03-26T10:00:42.172Z,3.10
2019-03-26T10:03:11.502Z,3.75
2019-03-26T10:05:40.840Z,3.15
2019-03-26T10:08:10.167Z,3.00
2019-03-26T10:10:39.519Z,3.40
2019-03-26T10:13:09.092Z,3.92
2019-03-26T10:15:38.430Z,3.90
2019-03-26T10:18:09.122Z,3.22
2019-03-26T10:20:38.459Z,4.15
2019-03-26T10:23:07.781Z,3.50
2019-03-26T10:25:37.115Z,3.40
2019-03-26T10:28:06.513Z,3.47
2019-03-26T10:30:38.126Z,3.35
2019-03-26T10:33:08.088Z,2.70
2019-03-26T10:35:37.716Z,2.90
2019-03-26T10:38:07.523Z,2.95
2019-03-26T10:40:40.085Z,2.98
2019-03-26T10:43:09.414Z,3.42
2019-03-26T10:45:38.727Z,3.42
2019-03-26T10:48:08.418Z,2.52
2019-03-26T10:50:38.031Z,3.02
2019-03-26T10:53:07.354Z,2.92
2019-03-26T10:55:36.934Z,2.95
2019-03-26T10:58:06.336Z,3.58
2019-03-26T11:00:35.735Z,2.90
2019-03-26T11:03:05.137Z,2.90
2019-03-26T11:05:34.859Z,3.33
2019-03-26T11:08:04.196Z,2.17
2019-03-26T11:10:33.774Z,2.15
2019-03-26T11:13:03.175Z,2.58
2019-03-26T11:15:32.585Z,2.62
2019-03-26T11:18:01.993Z,1.85
2019-03-26T11:20:31.309Z,3.05
2019-03-26T11:23:00.891Z,2.50
2019-03-26T11:25:30.229Z,2.77
2019-03-26T11:27:59.559Z,2.52
2019-03-26T11:30:29.127Z,3.00
2019-03-26T11:32:58.458Z,2.27
2019-03-26T11:35:27.831Z,2.33
2019-03-26T11:37:57.125Z,2.80
2019-03-26T11:40:26.463Z,2.25
2019-03-26T11:42:55.798Z,2.52
2019-03-26T11:45:25.137Z,2.35
2019-03-26T11:47:54.465Z,2.83
2019-03-26T11:50:23.915Z,2.83
2019-03-26T11:52:53.693Z,2.80
2019-03-26T11:55:23.056Z,2.92
2019-03-26T11:57:52.381Z,2.90
2019-03-26T12:00:32.789Z,2.90
2019-03-26T12:03:02.144Z,2.17
2019-03-26T12:05:31.454Z,2.85
2019-03-26T12:08:00.795Z,3.20
2019-03-26T12:10:30.149Z,3.12
2019-03-26T12:12:59.478Z,3.00
2019-03-26T12:15:30.104Z,2.87
2019-03-26T12:17:59.432Z,3.40
2019-03-26T12:20:28.760Z,2.47
2019-03-26T12:22:58.090Z,2.87
2019-03-26T12:25:27.768Z,3.12
2019-03-26T12:27:57.121Z,2.92
2019-03-26T12:30:31.909Z,2.40
2019-03-26T12:33:01.241Z,2.35
2019-03-26T12:35:31.210Z,2.67
2019-03-26T12:38:00.565Z,2.83
2019-03-26T12:40:29.899Z,2.77
2019-03-26T12:43:00.513Z,3.12
2019-03-26T12:45:29.935Z,3.10
2019-03-26T12:47:59.272Z,3.08
2019-03-26T12:50:31.956Z,2.98
2019-03-26T12:53:00.257Z,3.30
2019-03-26T12:55:29.545Z,3.33
2019-03-26T12:57:58.908Z,3.05
2019-03-26T13:00:34.549Z,2.77
2019-03-26T13:03:03.883Z,2.83
2019-03-26T13:05:33.215Z,3.40
2019-03-26T13:08:02.842Z,3.27
2019-03-26T13:10:32.468Z,17.60
2019-03-26T13:13:01.815Z,13.32
2019-03-26T13:15:31.212Z,4.97
2019-03-26T13:18:00.867Z,3.40
2019-03-26T13:20:30.200Z,4.08
2019-03-26T13:22:59.535Z,2.85
2019-03-26T13:25:28.867Z,2.85
2019-03-26T13:27:58.200Z,3.27
2019-03-26T13:30:27.780Z,3.10
2019-03-26T13:32:57.131Z,3.30
2019-03-26T13:35:26.463Z,2.90
2019-03-26T13:37:56.612Z,3.15
2019-03-26T13:40:27.568Z,3.30
2019-03-26T13:42:56.982Z,3.98
2019-03-26T13:45:26.569Z,3.75
2019-03-26T13:47:55.904Z,4.03
2019-03-26T13:50:26.224Z,3.98
2019-03-26T13:52:56.923Z,4.10
2019-03-26T13:55:26.356Z,4.00
2019-03-26T13:57:55.764Z,3.90
2019-03-26T14:00:34.757Z,3.25
2019-03-26T14:03:04.692Z,4.08
2019-03-26T14:05:34.036Z,3.35
2019-03-26T14:08:03.516Z,3.52
2019-03-26T14:10:40.772Z,3.70
2019-03-26T14:13:04.148Z,3.33
2019-03-26T14:15:33.494Z,3.20
2019-03-26T14:18:02.885Z,3.45
2019-03-26T14:20:32.165Z,3.80
2019-03-26T14:23:01.487Z,2.92
2019-03-26T14:25:30.992Z,3.50
2019-03-26T14:28:00.393Z,3.55
2019-03-26T14:30:35.072Z,3.35
2019-03-26T14:33:05.144Z,3.85
2019-03-26T14:35:34.477Z,3.22
2019-03-26T14:38:04.146Z,3.27
2019-03-26T14:40:33.475Z,3.25
2019-03-26T14:43:02.829Z,3.20
2019-03-26T14:45:32.162Z,3.40
2019-03-26T14:48:01.495Z,3.08
2019-03-26T14:50:30.903Z,2.70
2019-03-26T14:53:00.225Z,3.40
2019-03-26T14:55:29.558Z,3.20
2019-03-26T14:57:58.899Z,3.15
2019-03-26T15:00:28.220Z,2.70
2019-03-26T15:02:57.562Z,2.98
2019-03-26T15:05:26.885Z,3.22
2019-03-26T15:07:56.547Z,2.85
2019-03-26T15:10:25.974Z,3.08
2019-03-26T15:12:55.302Z,3.10
2019-03-26T15:15:24.638Z,2.80
2019-03-26T15:17:54.093Z,2.85
2019-03-26T15:20:23.772Z,2.65
2019-03-26T15:22:53.116Z,2.62
2019-03-26T15:25:22.814Z,3.22
2019-03-26T15:27:52.138Z,2.35
2019-03-26T15:30:23.430Z,2.87
2019-03-26T15:32:52.767Z,2.77
2019-03-26T15:35:22.107Z,2.90
2019-03-26T15:37:51.444Z,2.42
2019-03-26T15:40:20.884Z,3.08
2019-03-26T15:42:50.292Z,2.95
2019-03-26T15:45:20.138Z,3.67
2019-03-26T15:47:49.622Z,2.40
2019-03-26T15:50:31.180Z,2.52
2019-03-26T15:53:00.524Z,3.90
2019-03-26T15:55:29.892Z,3.02
2019-03-26T15:57:59.975Z,2.80
2019-03-26T16:00:32.383Z,2.75
2019-03-26T16:03:01.790Z,2.37
2019-03-26T16:05:31.125Z,2.95
2019-03-26T16:08:00.822Z,2.67
2019-03-26T16:10:30.181Z,2.72
2019-03-26T16:12:59.511Z,2.72
2019-03-26T16:15:28.855Z,2.87
2019-03-26T16:17:58.171Z,2.72
2019-03-26T16:20:27.512Z,3.10
2019-03-26T16:22:56.863Z,3.08
2019-03-26T16:25:26.197Z,2.90
2019-03-26T16:27:55.852Z,3.00
2019-03-26T16:30:26.145Z,3.02
2019-03-26T16:32:55.507Z,3.22
2019-03-26T16:35:24.862Z,2.77
2019-03-26T16:37:54.290Z,2.52
2019-03-26T16:40:23.693Z,2.58
2019-03-26T16:42:53.042Z,3.12
2019-03-26T16:45:22.367Z,3.02
2019-03-26T16:47:51.699Z,3.00
2019-03-26T16:50:21.017Z,2.52
2019-03-26T16:52:50.355Z,2.65
2019-03-26T16:55:19.975Z,3.02
2019-03-26T16:57:49.372Z,2.60
2019-03-26T17:00:21.770Z,3.00
2019-03-26T17:02:51.098Z,2.95
2019-03-26T17:05:26.346Z,3.00
2019-03-26T17:07:55.845Z,2.80
2019-03-26T17:10:25.191Z,2.90
2019-03-26T17:12:54.524Z,3.47
2019-03-26T17:15:23.952Z,2.52
2019-03-26T17:17:53.582Z,2.83
2019-03-26T17:20:24.178Z,3.37
2019-03-26T17:22:53.669Z,3.17
2019-03-26T17:25:23.005Z,3.17
2019-03-26T17:27:52.336Z,3.12
2019-03-26T17:30:21.668Z,3.20
2019-03-26T17:32:50.996Z,2.58
2019-03-26T17:35:20.329Z,2.62
2019-03-26T17:37:59.615Z,3.50
2019-03-26T17:40:20.791Z,3.22
2019-03-26T17:42:50.117Z,4.47
2019-03-26T17:45:19.454Z,2.95
2019-03-26T17:47:48.800Z,3.10
2019-03-26T17:50:18.207Z,3.22
2019-03-26T17:52:47.540Z,2.87
2019-03-26T17:55:16.870Z,3.12
2019-03-26T17:57:46.432Z,2.95
2019-03-26T18:00:17.782Z,3.15
2019-03-26T18:02:47.116Z,2.55
2019-03-26T18:05:27.871Z,3.15
2019-03-26T18:07:57.567Z,3.90
2019-03-26T18:10:26.985Z,3.22
2019-03-26T18:12:56.396Z,2.98
2019-03-26T18:15:25.725Z,2.87
2019-03-26T18:17:55.059Z,3.67
2019-03-26T18:20:32.624Z,2.80
2019-03-26T18:22:55.436Z,2.65
2019-03-26T18:25:24.848Z,2.60
2019-03-26T18:27:54.203Z,2.90
2019-03-26T18:30:23.865Z,2.80
2019-03-26T18:32:53.220Z,4.00
2019-03-26T18:35:22.558Z,4.95
2019-03-26T18:37:52.125Z,3.87
2019-03-26T18:40:21.467Z,4.25
2019-03-26T18:42:50.805Z,4.20
2019-03-26T18:45:20.462Z,4.00
2019-03-26T18:47:49.906Z,4.00
2019-03-26T18:50:21.046Z,3.20
2019-03-26T18:52:51.344Z,3.70
2019-03-26T18:55:20.682Z,3.92
2019-03-26T18:57:50.020Z,3.47
2019-03-26T19:00:22.723Z,3.35
2019-03-26T19:02:52.143Z,3.80
2019-03-26T19:05:21.566Z,4.00
2019-03-26T19:07:50.897Z,3.52
2019-03-26T19:10:28.837Z,4.47
2019-03-26T19:12:58.409Z,4.22
2019-03-26T19:15:28.042Z,3.65
2019-03-26T19:17:57.370Z,4.72
2019-03-26T19:20:26.786Z,4.28
2019-03-26T19:22:56.208Z,4.33
2019-03-26T19:25:25.593Z,4.85
2019-03-26T19:27:54.939Z,5.17
2019-03-26T19:30:24.276Z,5.22
2019-03-26T19:32:53.617Z,4.60
2019-03-26T19:35:22.945Z,5.90
2019-03-26T19:37:52.291Z,4.78
2019-03-26T19:40:21.703Z,4.78
2019-03-26T19:42:51.041Z,5.10
2019-03-26T19:45:20.364Z,5.25
2019-03-26T19:47:50.767Z,6.37
2019-03-26T19:50:20.160Z,5.70
2019-03-26T19:52:49.489Z,6.72
2019-03-26T19:55:18.821Z,6.12
2019-03-26T19:57:48.253Z,6.00
2019-03-26T20:00:18.017Z,5.75
2019-03-26T20:02:47.432Z,5.85
2019-03-26T20:05:16.817Z,6.17
2019-03-26T20:07:46.154Z,5.87
2019-03-26T20:10:17.177Z,6.37
2019-03-26T20:12:46.527Z,6.58
2019-03-26T20:15:17.001Z,6.15
2019-03-26T20:17:46.328Z,6.50
2019-03-26T20:20:16.390Z,6.90
2019-03-26T20:22:45.887Z,6.78
2019-03-26T20:25:15.452Z,7.78
2019-03-26T20:27:44.789Z,7.47
2019-03-26T20:30:14.652Z,6.50
2019-03-26T20:32:44.351Z,7.50
2019-03-26T20:35:14.121Z,7.12
2019-03-26T20:37:43.603Z,5.60
2019-03-26T20:40:13.473Z,6.87
2019-03-26T20:42:42.873Z,7.00
2019-03-26T20:45:14.530Z,7.28
2019-03-26T20:47:44.926Z,7.10
2019-03-26T20:50:14.814Z,7.20
2019-03-26T20:52:44.233Z,7.50
2019-03-26T20:55:14.298Z,6.80
2019-03-26T20:57:44.354Z,7.40
2019-03-26T21:00:15.665Z,6.62
2019-03-26T21:02:45.047Z,7.08
2019-03-26T21:05:14.615Z,7.37
2019-03-26T21:07:43.949Z,8.33
2019-03-26T21:10:13.832Z,6.92
2019-03-26T21:12:43.233Z,6.45
2019-03-26T21:15:12.730Z,6.97
2019-03-26T21:17:42.360Z,7.60
2019-03-26T21:20:12.031Z,7.28
2019-03-26T21:22:41.434Z,6.80
2019-03-26T21:25:11.108Z,7.25
2019-03-26T21:27:40.514Z,6.87
2019-03-26T21:30:15.999Z,7.87
2019-03-26T21:32:45.562Z,6.95
2019-03-26T21:35:15.462Z,7.80
2019-03-26T21:37:44.800Z,6.95
2019-03-26T21:40:14.398Z,7.67
2019-03-26T21:42:43.797Z,7.92
2019-03-26T21:45:14.895Z,8.38
2019-03-26T21:47:44.233Z,7.95
2019-03-26T21:50:13.794Z,7.25
2019-03-26T21:52:44.118Z,7.70
2019-03-26T21:55:13.739Z,6.92
2019-03-26T21:57:43.100Z,6.75
2019-03-26T22:00:13.642Z,6.28
2019-03-26T22:02:42.960Z,7.25
2019-03-26T22:05:12.845Z,7.20
2019-03-26T22:07:42.170Z,7.70
2019-03-26T22:10:11.851Z,7.62
2019-03-26T22:12:41.179Z,8.20
2019-03-26T22:15:11.761Z,8.63
2019-03-26T22:17:41.081Z,8.60
2019-03-26T22:20:11.623Z,6.67
2019-03-26T22:22:40.956Z,7.03
2019-03-26T22:25:10.537Z,7.47
2019-03-26T22:27:39.867Z,7.45
2019-03-26T22:30:11.114Z,7.67
2019-03-26T22:32:40.451Z,7.25
2019-03-26T22:35:10.071Z,7.37
2019-03-26T22:37:39.404Z,6.80
2019-03-26T22:40:09.276Z,8.10
2019-03-26T22:42:38.683Z,6.97
2019-03-26T22:45:10.325Z,6.83
2019-03-26T22:47:39.812Z,7.58
2019-03-26T22:50:10.998Z,8.33
2019-03-26T22:52:40.327Z,7.70
2019-03-26T22:55:10.642Z,8.38
2019-03-26T22:57:39.964Z,7.90
2019-03-26T23:00:12.519Z,8.15
2019-03-26T23:02:43.466Z,8.15
2019-03-26T23:05:14.553Z,7.87
2019-03-26T23:07:43.987Z,8.00
2019-03-26T23:10:15.581Z,8.23
2019-03-26T23:12:44.912Z,8.25
2019-03-26T23:15:17.354Z,8.20
2019-03-26T23:17:46.849Z,8.00
2019-03-26T23:20:16.250Z,7.67
2019-03-26T23:22:45.748Z,7.78
2019-03-26T23:25:16.015Z,7.28
2019-03-26T23:27:45.349Z,7.03
2019-03-26T23:30:15.580Z,8.28
2019-03-26T23:32:44.983Z,8.20
2019-03-26T23:35:14.480Z,9.85
2019-03-26T23:37:44.005Z,8.10
2019-03-26T23:40:13.694Z,7.97
2019-03-26T23:42:43.297Z,8.65
2019-03-26T23:45:12.963Z,8.20
2019-03-26T23:47:42.338Z,8.58
2019-03-26T23:50:13.194Z,9.40
2019-03-26T23:52:42.863Z,9.40
2019-03-26T23:55:12.726Z,8.75
2019-03-26T23:57:42.061Z,9.10
